| time (UTC) | temp C | wind direction | speed KPH | gust KPH | rain 1hr cm | rain 24hr cm | rain mn cm | humidity % | barometer mb |
| 20260509044204 | 15 | 227 | 3.2 | 6.4 | 0.00 | 2.39 | 1.04 | 90 | 1011.7 |
| 20260509043604 | 15 | 217 | 1.6 | 6.4 | 0.00 | 2.39 | 1.04 | 89 | 1011.6 |
| 20260509043303 | 15 | 243 | 0.0 | 4.8 | 0.00 | 2.39 | 1.04 | 88 | 1011.7 |
| 20260509043004 | 15 | 261 | 0.0 | 4.8 | 0.00 | 2.39 | 1.04 | 87 | 1011.7 |
| 20260509042704 | 15 | 269 | 1.6 | 4.8 | 0.00 | 2.39 | 1.04 | 87 | 1011.6 |
| 20260509042403 | 15 | 282 | 3.2 | 4.8 | 0.00 | 2.39 | 1.04 | 86 | 1011.6 |
| 20260509042103 | 15 | 270 | 1.6 | 4.8 | 0.00 | 2.39 | 1.04 | 85 | 1011.7 |
| 20260509041804 | 16 | 240 | 0.0 | 1.6 | 0.00 | 2.39 | 1.04 | 84 | 1011.8 |
| 20260509041504 | 16 | 264 | 0.0 | 1.6 | 0.00 | 2.39 | 1.04 | 83 | 1011.7 |
| 20260509041204 | 16 | 322 | 0.0 | 3.2 | 0.00 | 2.39 | 1.04 | 83 | 1011.8 |
| 20260509040904 | 16 | 321 | 0.0 | 3.2 | 0.00 | 2.39 | 1.04 | 83 | 1011.7 |
| 20260509040604 | 16 | 313 | 0.0 | 3.2 | 0.00 | 2.39 | 1.04 | 84 | 1011.7 |
| 20260509040004 | 16 | 264 | 0.0 | 3.2 | 0.00 | 2.39 | 1.04 | 83 | 1011.9 |
| 20260509035706 | 16 | 284 | 1.6 | 4.8 | 0.00 | 2.39 | 1.04 | 81 | 1011.9 |
| 20260509035406 | 16 | 271 | 0.0 | 6.4 | 0.00 | 2.39 | 1.04 | 81 | 1011.9 |
| 20260509034804 | 16 | 269 | 1.6 | 6.4 | 0.00 | 2.39 | 1.04 | 79 | 1011.8 |
| 20260509034506 | 16 | 247 | 3.2 | 8.0 | 0.00 | 2.39 | 1.04 | 79 | 1011.7 |
| 20260509034204 | 16 | 230 | 1.6 | 8.0 | 0.00 | 2.39 | 1.04 | 78 | 1011.6 |
| 20260509033903 | 17 | 217 | 3.2 | 9.7 | 0.00 | 2.39 | 1.04 | 76 | 1011.4 |
| 20260509033303 | 17 | 208 | 4.8 | 9.7 | 0.00 | 2.39 | 1.04 | 77 | 1011.6 |
| 20260509033004 | 17 | 217 | 3.2 | 8.0 | 0.00 | 2.39 | 1.04 | 77 | 1011.7 |
| 20260509032703 | 17 | 234 | 4.8 | 8.0 | 0.05 | 2.39 | 1.04 | 78 | 1011.6 |
| 20260509031804 | 16 | 196 | 6.4 | 8.0 | 0.23 | 2.39 | 1.04 | 84 | 1011.9 |
| 20260509031503 | 16 | 213 | 3.2 | 11.3 | 0.38 | 2.39 | 1.04 | 83 | 1011.7 |
| 20260509031204 | 15 | 206 | 6.4 | 11.3 | 0.38 | 2.39 | 1.04 | 84 | 1011.8 |
| 20260509030903 | 15 | 211 | 1.6 | 11.3 | 0.43 | 2.39 | 1.04 | 84 | 1011.8 |
| 20260509030604 | 15 | 203 | 6.4 | 11.3 | 0.43 | 2.39 | 1.04 | 84 | 1011.7 |
| 20260509025404 | 15 | 223 | 6.4 | 12.9 | 0.43 | 2.39 | 1.04 | 90 | 1011.8 |
| 20260509025104 | 16 | 217 | 3.2 | 8.0 | 0.43 | 2.39 | 1.04 | 90 | 1011.9 |
| 20260509024804 | 16 | 200 | 4.8 | 12.9 | 0.43 | 2.39 | 1.04 | 90 | 1011.8 |
| 20260509024503 | 16 | 200 | 3.2 | 12.9 | 0.43 | 2.39 | 1.04 | 91 | 1011.9 |
| 20260509023904 | 15 | 201 | 6.4 | 12.9 | 0.43 | 2.39 | 1.04 | 91 | 1012.0 |
| 20260509023604 | 15 | 211 | 6.4 | 11.3 | 0.43 | 2.39 | 1.04 | 90 | 1012.2 |
| 20260509023305 | 15 | 229 | 3.2 | 8.0 | 0.43 | 2.39 | 1.04 | 90 | 1012.3 |
| 20260509023005 | 15 | 208 | 3.2 | 9.7 | 0.38 | 2.36 | 1.02 | 89 | 1012.2 |
| 20260509022704 | 15 | 184 | 1.6 | 12.9 | 0.36 | 2.34 | 0.99 | 87 | 1012.2 |
| 20260509022404 | 15 | 171 | 1.6 | 12.9 | 0.30 | 2.29 | 0.94 | 85 | 1012.3 |
| 20260509021504 | 16 | 183 | 11.3 | 12.9 | 0.03 | 2.01 | 0.66 | 78 | 1012.2 |
| 20260509021203 | 17 | 151 | 3.2 | 8.0 | 0.00 | 1.98 | 0.64 | 77 | 1012.2 |
| 20260509020904 | 17 | 135 | 3.2 | 6.4 | 0.03 | 1.98 | 0.64 | 76 | 1012.0 |
| 20260509020603 | 17 | 314 | 0.0 | 1.6 | 0.03 | 1.98 | 0.64 | 76 | 1012.1 |
| 20260509020304 | 17 | 314 | 0.0 | 1.6 | 0.10 | 1.98 | 0.64 | 76 | 1012.1 |
| 20260509020004 | 17 | 314 | 0.0 | 1.6 | 0.10 | 1.98 | 0.64 | 76 | 1012.1 |
| 20260509015703 | 17 | 314 | 0.0 | 1.6 | 0.15 | 1.98 | 0.64 | 75 | 1012.1 |
| 20260509015405 | 17 | 314 | 0.0 | 1.6 | 0.23 | 1.98 | 0.64 | 76 | 1012.1 |
| 20260509015104 | 17 | 314 | 0.0 | 1.6 | 0.23 | 1.98 | 0.64 | 76 | 1012.1 |
| 20260509014804 | 17 | 314 | 0.0 | 3.2 | 0.23 | 1.98 | 0.64 | 76 | 1011.9 |
| 20260509014503 | 17 | 290 | 0.0 | 3.2 | 0.23 | 1.98 | 0.64 | 78 | 1012.0 |
| 20260509014203 | 17 | 281 | 0.0 | 3.2 | 0.23 | 1.98 | 0.64 | 78 | 1012.0 |
| 20260509013903 | 17 | 286 | 0.0 | 3.2 | 0.23 | 1.98 | 0.64 | 80 | 1012.0 |
| 20260509013604 | 17 | 254 | 0.0 | 6.4 | 0.23 | 1.98 | 0.64 | 83 | 1012.1 |
| 20260509013004 | 16 | 266 | 0.0 | 9.7 | 0.23 | 1.98 | 0.64 | 86 | 1012.2 |
| 20260509012704 | 16 | 264 | 3.2 | 11.3 | 0.23 | 1.98 | 0.64 | 87 | 1012.1 |
| 20260509012403 | 15 | 252 | 3.2 | 17.7 | 0.23 | 1.98 | 0.64 | 88 | 1012.0 |
| 20260509011803 | 15 | 238 | 3.2 | 17.7 | 0.23 | 1.98 | 0.64 | 86 | 1012.3 |
| 20260509011505 | 15 | 227 | 8.0 | 17.7 | 0.23 | 1.98 | 0.64 | 86 | 1012.2 |
| 20260509011204 | 15 | 193 | 3.2 | 17.7 | 0.23 | 1.98 | 0.64 | 83 | 1012.0 |
| 20260509010906 | 16 | 186 | 6.4 | 17.7 | 0.20 | 1.96 | 0.61 | 81 | 1012.2 |
| 20260509010304 | 17 | 187 | 6.4 | 11.3 | 0.15 | 1.88 | 0.53 | 74 | 1012.1 |
| 20260509010004 | 17 | 188 | 3.2 | 11.3 | 0.15 | 1.88 | 0.53 | 70 | 1012.0 |
| 20260509005704 | 18 | 196 | 6.4 | 12.9 | 0.10 | 1.83 | 0.48 | 67 | 1012.2 |
| 20260509005404 | 18 | 217 | 3.2 | 12.9 | 0.00 | 1.75 | 0.38 | 64 | 1012.2 |
| 20260509005106 | 19 | 233 | 4.8 | 12.9 | 0.00 | 1.75 | 0.38 | 61 | 1012.2 |
| 20260509004503 | 20 | 287 | 3.2 | 12.9 | 0.00 | 1.75 | 0.38 | 61 | 1012.2 |
| 20260509004205 | 19 | 296 | 6.4 | 12.9 | 0.00 | 1.75 | 0.38 | 62 | 1012.3 |
| 20260509003903 | 20 | 278 | 6.4 | 14.5 | 0.00 | 1.75 | 0.38 | 63 | 1012.2 |
| 20260509003604 | 19 | 256 | 6.4 | 17.7 | 0.00 | 1.75 | 0.38 | 62 | 1012.4 |
| 20260509002704 | 20 | 214 | 8.0 | 17.7 | 0.00 | 1.75 | 0.38 | 61 | 1012.6 |
| 20260509002104 | 20 | 240 | 6.4 | 19.3 | 0.00 | 1.75 | 0.38 | 61 | 1012.6 |
| 20260509001803 | 19 | 239 | 4.8 | 19.3 | 0.00 | 1.75 | 0.38 | 62 | 1012.7 |
| 20260509001503 | 19 | 236 | 9.7 | 19.3 | 0.00 | 1.75 | 0.38 | 62 | 1012.6 |
| 20260509001206 | 20 | 229 | 9.7 | 20.9 | 0.00 | 1.75 | 0.38 | 60 | 1012.6 |
| 20260509000904 | 20 | 258 | 6.4 | 20.9 | 0.00 | 1.75 | 0.38 | 63 | 1012.6 |
| 20260509000604 | 19 | 251 | 9.7 | 22.5 | 0.00 | 1.75 | 0.38 | 63 | 1012.8 |
| 20260509000304 | 18 | 285 | 11.3 | 22.5 | 0.00 | 1.75 | 0.38 | 66 | 1012.8 |
| 20260509000004 | 18 | 261 | 6.4 | 22.5 | 0.00 | 1.75 | 0.38 | 62 | 1012.8 |
| 20260508235704 | 20 | 246 | 14.5 | 22.5 | 0.00 | 1.75 | 0.38 | 60 | 1012.9 |
| 20260508235404 | 20 | 226 | 4.8 | 14.5 | 0.00 | 1.75 | 0.38 | 61 | 1012.9 |
| 20260508235103 | 20 | 243 | 4.8 | 16.1 | 0.00 | 1.75 | 0.38 | 62 | 1012.8 |
| 20260508234804 | 20 | 233 | 12.9 | 17.7 | 0.00 | 1.75 | 0.38 | 69 | 1013.1 |
| 20260508234503 | 18 | 228 | 3.2 | 25.7 | 0.00 | 1.75 | 0.38 | 70 | 1013.1 |
| 20260508234204 | 17 | 225 | 9.7 | 25.7 | 0.00 | 1.75 | 0.38 | 69 | 1013.1 |
| 20260508233903 | 17 | 219 | 6.4 | 25.7 | 0.00 | 1.75 | 0.38 | 69 | 1013.2 |
| 20260508233604 | 17 | 252 | 14.5 | 25.7 | 0.00 | 1.75 | 0.38 | 70 | 1013.2 |
| 20260508233004 | 17 | 258 | 8.0 | 27.4 | 0.00 | 1.75 | 0.38 | 72 | 1013.2 |
| 20260508232703 | 17 | 235 | 9.7 | 27.4 | 0.00 | 1.75 | 0.38 | 73 | 1013.2 |
| 20260508232404 | 17 | 247 | 4.8 | 27.4 | 0.00 | 1.75 | 0.38 | 73 | 1013.4 |
| 20260508231804 | 17 | 265 | 12.9 | 24.1 | 0.00 | 1.75 | 0.38 | 73 | 1013.3 |
| 20260508231506 | 17 | 256 | 6.4 | 12.9 | 0.00 | 1.75 | 0.38 | 72 | 1013.4 |
| 20260508230904 | 18 | 248 | 6.4 | 12.9 | 0.00 | 1.75 | 0.38 | 68 | 1013.4 |
| 20260508230603 | 19 | 209 | 6.4 | 12.9 | 0.00 | 1.75 | 0.38 | 64 | 1013.4 |
| 20260508230304 | 20 | 202 | 8.0 | 12.9 | 0.00 | 1.75 | 0.38 | 61 | 1013.5 |
| 20260508230004 | 22 | 209 | 8.0 | 12.9 | 0.00 | 1.75 | 0.38 | 59 | 1013.3 |
| 20260508225704 | 22 | 245 | 3.2 | 9.7 | 0.00 | 1.75 | 0.38 | 61 | 1013.2 |
| 20260508225406 | 21 | 290 | 3.2 | 9.7 | 0.00 | 1.75 | 0.38 | 65 | 1013.4 |
| 20260508225104 | 20 | 310 | 0.0 | 11.3 | 0.00 | 1.75 | 0.38 | 67 | 1013.3 |
| 20260508224804 | 20 | 318 | 1.6 | 11.3 | 0.00 | 1.75 | 0.38 | 69 | 1013.4 |
| 20260508224503 | 18 | 318 | 3.2 | 12.9 | 0.00 | 1.75 | 0.38 | 70 | 1013.4 |
| 20260508224204 | 18 | 315 | 8.0 | 14.5 | 0.00 | 1.75 | 0.38 | 70 | 1013.4 |
| 20260508223904 | 19 | 293 | 4.8 | 14.5 | 0.00 | 1.75 | 0.38 | 65 | 1013.5 |
| 20260508223603 | 20 | 255 | 4.8 | 14.5 | 0.00 | 1.75 | 0.38 | 63 | 1013.5 |
| 20260508223304 | 20 | 237 | 0.0 | 14.5 | 0.00 | 1.75 | 0.38 | 63 | 1013.5 |
| 20260508223004 | 20 | 253 | 3.2 | 12.9 | 0.00 | 1.75 | 0.38 | 64 | 1013.5 |
| 20260508222704 | 20 | 273 | 3.2 | 12.9 | 0.00 | 1.75 | 0.38 | 69 | 1013.5 |
| 20260508222406 | 20 | 241 | 1.6 | 20.9 | 0.00 | 1.75 | 0.38 | 68 | 1013.5 |
| 20260508222103 | 19 | 212 | 3.2 | 20.9 | 0.00 | 1.75 | 0.38 | 70 | 1013.5 |
| 20260508221805 | 19 | 221 | 6.4 | 20.9 | 0.00 | 1.75 | 0.38 | 69 | 1013.5 |
| 20260508221506 | 19 | 253 | 4.8 | 17.7 | 0.00 | 1.75 | 0.38 | 71 | 1013.4 |
| 20260508221203 | 18 | 286 | 3.2 | 12.9 | 0.00 | 1.75 | 0.38 | 73 | 1013.6 |
| 20260508220905 | 18 | 294 | 4.8 | 12.9 | 0.00 | 1.75 | 0.38 | 73 | 1013.6 |
| 20260508220604 | 18 | 278 | 8.0 | 12.9 | 0.00 | 1.75 | 0.38 | 73 | 1013.7 |
| 20260508220305 | 18 | 295 | 6.4 | 12.9 | 0.00 | 1.75 | 0.38 | 73 | 1013.7 |
| 20260508220004 | 17 | 314 | 3.2 | 12.9 | 0.00 | 1.75 | 0.38 | 72 | 1013.7 |
| 20260508215405 | 17 | 329 | 9.7 | 12.9 | 0.00 | 1.75 | 0.38 | 74 | 1013.6 |
| 20260508215103 | 17 | 296 | 3.2 | 11.3 | 0.00 | 1.75 | 0.38 | 75 | 1013.7 |
| 20260508214804 | 17 | 298 | 3.2 | 11.3 | 0.00 | 1.75 | 0.38 | 77 | 1013.8 |
| 20260508214504 | 17 | 283 | 6.4 | 11.3 | 0.00 | 1.75 | 0.38 | 80 | 1014.0 |
| 20260508214203 | 17 | 279 | 4.8 | 11.3 | 0.00 | 1.75 | 0.38 | 85 | 1014.1 |
| 20260508213904 | 16 | 285 | 6.4 | 11.3 | 0.00 | 1.75 | 0.38 | 88 | 1014.2 |
| 20260508213604 | 15 | 282 | 6.4 | 11.3 | 0.00 | 1.75 | 0.38 | 90 | 1014.2 |
| 20260508213304 | 15 | 285 | 6.4 | 11.3 | 0.00 | 1.75 | 0.38 | 91 | 1014.2 |
| 20260508213004 | 15 | 278 | 3.2 | 6.4 | 0.00 | 1.75 | 0.38 | 91 | 1014.3 |
| 20260508212703 | 15 | 304 | 3.2 | 9.7 | 0.00 | 1.75 | 0.38 | 92 | 1014.1 |
| 20260508212404 | 15 | 288 | 0.0 | 9.7 | 0.00 | 1.75 | 0.38 | 93 | 1014.2 |
| 20260508212104 | 15 | 291 | 1.6 | 9.7 | 0.00 | 1.75 | 0.38 | 94 | 1014.2 |
| 20260508211804 | 15 | 290 | 6.4 | 9.7 | 0.00 | 1.75 | 0.38 | 95 | 1014.3 |
| 20260508211504 | 15 | 293 | 1.6 | 8.0 | 0.00 | 1.75 | 0.38 | 96 | 1014.2 |
| 20260508211204 | 15 | 305 | 3.2 | 8.0 | 0.00 | 1.75 | 0.38 | 97 | 1014.2 |
| 20260508210905 | 15 | 283 | 3.2 | 8.0 | 0.00 | 1.75 | 0.38 | 98 | 1014.1 |
| 20260508210304 | 16 | 6 | 0.0 | 3.2 | 0.00 | 1.75 | 0.38 | 98 | 1013.9 |
| 20260508210006 | 16 | 10 | 1.6 | 3.2 | 0.00 | 1.75 | 0.38 | 98 | 1014.1 |
| 20260508205704 | 16 | 46 | 0.0 | 3.2 | 0.00 | 1.75 | 0.38 | 98 | 1014.2 |
| 20260508205404 | 16 | 46 | 1.6 | 3.2 | 0.00 | 1.75 | 0.38 | 98 | 1014.1 |
| 20260508204805 | 15 | 46 | 0.0 | 3.2 | 0.00 | 1.75 | 0.38 | 99 | 1014.1 |
| 20260508204504 | 14 | 326 | 0.0 | 6.4 | 0.00 | 1.75 | 0.38 | 99 | 1014.0 |
| 20260508203904 | 13 | 331 | 1.6 | 6.4 | 0.00 | 1.75 | 0.38 | 99 | 1014.1 |
| 20260508203603 | 13 | 23 | 0.0 | 3.2 | 0.00 | 1.75 | 0.38 | 99 | 1014.0 |
| 20260508203304 | 13 | 23 | 0.0 | 3.2 | 0.00 | 1.75 | 0.38 | 99 | 1013.8 |
| 20260508203004 | 13 | 0 | 0.0 | 0.0 | 0.00 | 1.75 | 0.38 | 99 | 1013.9 |
| 20260508202704 | 13 | 292 | 0.0 | 3.2 | 0.00 | 1.75 | 0.38 | 99 | 1013.9 |
| 20260508202403 | 13 | 292 | 0.0 | 3.2 | 0.00 | 1.75 | 0.38 | 99 | 1013.8 |
| 20260508202104 | 13 | 292 | 0.0 | 3.2 | 0.00 | 1.75 | 0.38 | 99 | 1013.8 |
| 20260508201803 | 13 | 298 | 3.2 | 3.2 | 0.00 | 1.75 | 0.38 | 99 | 1013.6 |
| 20260508201505 | 13 | 290 | 0.0 | 3.2 | 0.00 | 1.75 | 0.38 | 99 | 1013.7 |
| 20260508201204 | 13 | 290 | 0.0 | 3.2 | 0.00 | 1.75 | 0.38 | 99 | 1013.7 |
| 20260508200605 | 13 | 274 | 0.0 | 6.4 | 0.00 | 1.75 | 0.38 | 99 | 1013.7 |
| 20260508200303 | 13 | 269 | 0.0 | 6.4 | 0.00 | 1.75 | 0.38 | 99 | 1013.7 |
| 20260508195704 | 13 | 203 | 1.6 | 6.4 | 0.00 | 1.75 | 0.38 | 99 | 1013.9 |
| 20260508195404 | 13 | 194 | 0.0 | 4.8 | 0.00 | 1.75 | 0.38 | 99 | 1013.7 |
| 20260508194804 | 13 | 19 | 0.0 | 4.8 | 0.00 | 1.75 | 0.38 | 99 | 1013.6 |
| 20260508194206 | 13 | 23 | 3.2 | 4.8 | 0.00 | 1.75 | 0.38 | 99 | 1013.6 |
| 20260508193903 | 13 | 39 | 0.0 | 3.2 | 0.00 | 1.75 | 0.38 | 99 | 1013.6 |
| 20260508193604 | 13 | 30 | 0.0 | 3.2 | 0.00 | 1.75 | 0.38 | 99 | 1013.7 |
| 20260508193303 | 13 | 38 | 0.0 | 3.2 | 0.00 | 1.75 | 0.38 | 99 | 1013.5 |
| 20260508193003 | 13 | 38 | 1.6 | 3.2 | 0.00 | 1.75 | 0.38 | 99 | 1013.5 |
| 20260508192704 | 13 | 42 | 0.0 | 3.2 | 0.00 | 1.75 | 0.38 | 99 | 1013.6 |
| 20260508192406 | 13 | 44 | 0.0 | 3.2 | 0.00 | 1.75 | 0.38 | 99 | 1013.6 |
| 20260508192103 | 13 | 37 | 3.2 | 4.8 | 0.00 | 1.75 | 0.38 | 99 | 1013.7 |
| 20260508191804 | 13 | 24 | 1.6 | 4.8 | 0.00 | 1.75 | 0.38 | 99 | 1013.5 |
| 20260508191504 | 13 | 19 | 0.0 | 4.8 | 0.00 | 1.75 | 0.38 | 99 | 1013.5 |
| 20260508191206 | 12 | 18 | 3.2 | 4.8 | 0.00 | 1.75 | 0.38 | 99 | 1013.6 |
| 20260508190906 | 12 | 27 | 1.6 | 3.2 | 0.00 | 1.75 | 0.38 | 97 | 1013.6 |
| 20260508190604 | 12 | 1 | 0.0 | 1.6 | 0.00 | 1.75 | 0.38 | 97 | 1013.6 |
| 20260508190304 | 12 | 0 | 0.0 | 0.0 | 0.00 | 1.75 | 0.38 | 97 | 1013.4 |
| 20260508190004 | 12 | 0 | 0.0 | 0.0 | 0.00 | 1.75 | 0.38 | 97 | 1013.5 |
| 20260508185404 | 12 | 0 | 0.0 | 0.0 | 0.00 | 1.75 | 0.38 | 97 | 1013.7 |
| 20260508185104 | 12 | 0 | 0.0 | 0.0 | 0.00 | 1.75 | 0.38 | 97 | 1013.5 |
| 20260508183904 | 13 | 1 | 0.0 | 1.6 | 0.00 | 1.75 | 0.38 | 99 | 1013.2 |
| 20260508183304 | 13 | 1 | 0.0 | 1.6 | 0.00 | 1.75 | 0.38 | 99 | 1013.5 |
| 20260508183004 | 13 | 1 | 0.0 | 1.6 | 0.00 | 1.75 | 0.38 | 99 | 1013.5 |
| 20260508182703 | 13 | 0 | 0.0 | 0.0 | 0.00 | 1.75 | 0.38 | 99 | 1013.4 |
| 20260508182104 | 13 | 0 | 0.0 | 0.0 | 0.00 | 1.75 | 0.38 | 99 | 1013.5 |
| 20260508181805 | 13 | 0 | 0.0 | 0.0 | 0.00 | 1.75 | 0.38 | 99 | 1013.7 |
| 20260508181503 | 13 | 0 | 0.0 | 0.0 | 0.00 | 1.75 | 0.38 | 99 | 1013.6 |
| 20260508181204 | 13 | 0 | 0.0 | 0.0 | 0.00 | 1.75 | 0.38 | 99 | 1013.6 |
| 20260508180604 | 13 | 314 | 0.0 | 4.8 | 0.00 | 1.75 | 0.38 | 99 | 1013.7 |
| 20260508180304 | 13 | 314 | 0.0 | 4.8 | 0.00 | 1.75 | 0.38 | 99 | 1013.7 |
| 20260508180004 | 13 | 306 | 0.0 | 4.8 | 0.00 | 1.75 | 0.38 | 99 | 1013.6 |
| 20260508175704 | 13 | 301 | 3.2 | 4.8 | 0.00 | 1.75 | 0.38 | 99 | 1013.6 |
| 20260508175403 | 13 | 291 | 0.0 | 4.8 | 0.00 | 1.75 | 0.38 | 99 | 1013.6 |
| 20260508175104 | 13 | 331 | 0.0 | 4.8 | 0.00 | 1.75 | 0.38 | 99 | 1013.7 |
| 20260508174803 | 13 | 332 | 0.0 | 4.8 | 0.00 | 1.75 | 0.38 | 99 | 1013.7 |
| 20260508174504 | 13 | 332 | 0.0 | 4.8 | 0.00 | 1.75 | 0.38 | 99 | 1013.6 |
| 20260508174204 | 13 | 332 | 0.0 | 4.8 | 0.00 | 1.75 | 0.38 | 99 | 1013.7 |
| 20260508173903 | 13 | 0 | 0.0 | 0.0 | 0.00 | 1.75 | 0.38 | 99 | 1013.6 |
| 20260508173604 | 13 | 45 | 0.0 | 1.6 | 0.00 | 1.75 | 0.38 | 99 | 1013.7 |
| 20260508173005 | 13 | 45 | 0.0 | 1.6 | 0.00 | 1.75 | 0.38 | 99 | 1013.7 |
| 20260508172703 | 13 | 0 | 0.0 | 0.0 | 0.00 | 1.75 | 0.38 | 99 | 1013.6 |
| 20260508172405 | 13 | 0 | 0.0 | 0.0 | 0.00 | 1.75 | 0.38 | 99 | 1013.5 |
| 20260508172103 | 13 | 0 | 0.0 | 0.0 | 0.00 | 1.75 | 0.38 | 99 | 1013.6 |
| 20260508171803 | 13 | 0 | 0.0 | 0.0 | 0.00 | 1.75 | 0.38 | 99 | 1013.7 |
| 20260508171505 | 13 | 0 | 0.0 | 0.0 | 0.00 | 1.75 | 0.38 | 99 | 1013.8 |
| 20260508171204 | 13 | 0 | 0.0 | 0.0 | 0.00 | 1.75 | 0.38 | 99 | 1013.8 |
| 20260508170903 | 13 | 0 | 0.0 | 0.0 | 0.00 | 1.75 | 0.38 | 99 | 1013.8 |
| 20260508170604 | 13 | 0 | 0.0 | 0.0 | 0.00 | 1.75 | 0.38 | 99 | 1013.8 |
| 20260508170304 | 13 | 0 | 0.0 | 0.0 | 0.00 | 1.75 | 0.38 | 99 | 1013.9 |
| 20260508170005 | 13 | 45 | 0.0 | 1.6 | 0.00 | 1.75 | 0.38 | 99 | 1013.9 |
| 20260508165704 | 13 | 45 | 0.0 | 1.6 | 0.00 | 1.75 | 0.38 | 99 | 1013.9 |
| 20260508165404 | 13 | 45 | 0.0 | 1.6 | 0.00 | 1.75 | 0.38 | 99 | 1013.9 |
| 20260508165104 | 13 | 46 | 0.0 | 1.6 | 0.00 | 1.75 | 0.38 | 99 | 1014.0 |
| 20260508164804 | 13 | 0 | 0.0 | 0.0 | 0.00 | 1.75 | 0.38 | 99 | 1013.9 |
| 20260508164504 | 13 | 0 | 0.0 | 0.0 | 0.00 | 1.75 | 0.38 | 99 | 1013.9 |
| 20260508163903 | 13 | 0 | 0.0 | 0.0 | 0.00 | 1.75 | 0.38 | 99 | 1013.9 |
| 20260508163603 | 13 | 0 | 0.0 | 0.0 | 0.00 | 1.75 | 0.38 | 99 | 1013.9 |
| 20260508163004 | 13 | 292 | 0.0 | 1.6 | 0.00 | 1.75 | 0.38 | 99 | 1013.8 |
| 20260508162704 | 13 | 337 | 0.0 | 1.6 | 0.00 | 1.75 | 0.38 | 99 | 1013.7 |
| 20260508162404 | 13 | 337 | 0.0 | 1.6 | 0.00 | 1.75 | 0.38 | 99 | 1013.6 |
| 20260508162104 | 13 | 337 | 0.0 | 1.6 | 0.00 | 1.75 | 0.38 | 99 | 1013.7 |
| 20260508161803 | 13 | 0 | 0.0 | 0.0 | 0.00 | 1.75 | 0.38 | 99 | 1013.5 |
| 20260508161504 | 13 | 0 | 0.0 | 0.0 | 0.00 | 1.75 | 0.38 | 99 | 1013.5 |
| 20260508160903 | 13 | 0 | 0.0 | 0.0 | 0.00 | 1.75 | 0.38 | 99 | 1013.6 |
| 20260508160604 | 13 | 0 | 0.0 | 0.0 | 0.00 | 1.75 | 0.38 | 99 | 1013.5 |
| 20260508160303 | 13 | 0 | 0.0 | 0.0 | 0.00 | 1.75 | 0.38 | 99 | 1013.5 |
| 20260508155404 | 13 | 0 | 0.0 | 0.0 | 0.00 | 1.75 | 0.38 | 99 | 1013.5 |
| 20260508155104 | 13 | 0 | 0.0 | 0.0 | 0.00 | 1.75 | 0.38 | 99 | 1013.7 |
| 20260508154804 | 13 | 314 | 0.0 | 3.2 | 0.00 | 1.75 | 0.38 | 99 | 1013.6 |
| 20260508154504 | 13 | 15 | 0.0 | 3.2 | 0.00 | 1.75 | 0.38 | 99 | 1013.7 |
| 20260508153904 | 13 | 7 | 0.0 | 3.2 | 0.00 | 1.75 | 0.38 | 99 | 1013.7 |
| 20260508153605 | 13 | 14 | 1.6 | 3.2 | 0.00 | 1.75 | 0.38 | 99 | 1013.6 |
| 20260508153303 | 13 | 2 | 0.0 | 4.8 | 0.00 | 1.75 | 0.38 | 99 | 1013.7 |
| 20260508153004 | 13 | 17 | 0.0 | 4.8 | 0.00 | 1.75 | 0.38 | 99 | 1013.6 |
| 20260508152704 | 13 | 28 | 0.0 | 4.8 | 0.00 | 1.75 | 0.38 | 99 | 1013.8 |
| 20260508152105 | 13 | 39 | 1.6 | 4.8 | 0.00 | 1.75 | 0.38 | 99 | 1013.8 |
| 20260508151803 | 13 | 39 | 1.6 | 3.2 | 0.00 | 1.75 | 0.38 | 99 | 1013.7 |
| 20260508150604 | 13 | 35 | 0.0 | 3.2 | 0.00 | 1.75 | 0.38 | 99 | 1014.0 |
| 20260508150304 | 13 | 41 | 0.0 | 3.2 | 0.00 | 1.75 | 0.38 | 99 | 1014.0 |
| 20260508150004 | 13 | 41 | 0.0 | 3.2 | 0.00 | 1.75 | 0.38 | 99 | 1014.1 |
| 20260508145706 | 13 | 37 | 0.0 | 3.2 | 0.00 | 1.75 | 0.38 | 99 | 1014.2 |
| 20260508145404 | 13 | 11 | 0.0 | 3.2 | 0.00 | 1.75 | 0.38 | 99 | 1014.3 |
| 20260508144803 | 13 | 1 | 0.0 | 3.2 | 0.00 | 1.75 | 0.38 | 99 | 1014.3 |
| 20260508144505 | 13 | 1 | 0.0 | 3.2 | 0.00 | 1.75 | 0.38 | 99 | 1014.3 |
| 20260508144204 | 13 | 6 | 1.6 | 3.2 | 0.00 | 1.75 | 0.38 | 99 | 1014.5 |
| 20260508143904 | 13 | 21 | 0.0 | 1.6 | 0.00 | 1.75 | 0.38 | 99 | 1014.6 |
| 20260508143604 | 13 | 20 | 0.0 | 1.6 | 0.00 | 1.75 | 0.38 | 99 | 1014.5 |
| 20260508143303 | 13 | 13 | 0.0 | 1.6 | 0.00 | 1.75 | 0.38 | 99 | 1014.5 |
| 20260508143004 | 13 | 9 | 0.0 | 1.6 | 0.00 | 1.75 | 0.38 | 98 | 1014.6 |
| 20260508142704 | 13 | 36 | 0.0 | 1.6 | 0.00 | 1.75 | 0.38 | 98 | 1014.5 |
| 20260508142404 | 13 | 40 | 0.0 | 1.6 | 0.00 | 1.75 | 0.38 | 98 | 1014.6 |
| 20260508142105 | 13 | 22 | 0.0 | 1.6 | 0.00 | 1.75 | 0.38 | 98 | 1014.6 |
| 20260508141804 | 13 | 2 | 0.0 | 1.6 | 0.00 | 1.75 | 0.38 | 98 | 1014.7 |
| 20260508141504 | 13 | 5 | 0.0 | 3.2 | 0.00 | 1.75 | 0.38 | 98 | 1014.9 |
| 20260508141204 | 13 | 5 | 0.0 | 3.2 | 0.00 | 1.75 | 0.38 | 98 | 1014.7 |
| 20260508140903 | 13 | 5 | 0.0 | 3.2 | 0.00 | 1.75 | 0.38 | 98 | 1014.7 |
| 20260508140604 | 13 | 3 | 0.0 | 3.2 | 0.00 | 1.75 | 0.38 | 97 | 1014.8 |
| 20260508140303 | 13 | 7 | 0.0 | 1.6 | 0.00 | 1.75 | 0.38 | 97 | 1014.8 |
| 20260508140005 | 14 | 12 | 0.0 | 1.6 | 0.00 | 1.75 | 0.38 | 96 | 1014.7 |
| 20260508135704 | 14 | 0 | 0.0 | 0.0 | 0.00 | 1.75 | 0.38 | 96 | 1014.8 |
| 20260508135103 | 14 | 0 | 0.0 | 0.0 | 0.00 | 1.75 | 0.38 | 96 | 1014.5 |
| 20260508134804 | 14 | 314 | 0.0 | 3.2 | 0.00 | 1.75 | 0.38 | 96 | 1015.0 |
| 20260508134204 | 14 | 314 | 0.0 | 3.2 | 0.00 | 1.75 | 0.38 | 96 | 1015.0 |
| 20260508133903 | 14 | 314 | 1.6 | 3.2 | 0.00 | 1.75 | 0.38 | 96 | 1015.0 |
| 20260508133304 | 14 | 0 | 0.0 | 0.0 | 0.03 | 1.75 | 0.38 | 96 | 1015.1 |
| 20260508132704 | 14 | 0 | 0.0 | 0.0 | 0.03 | 1.75 | 0.38 | 96 | 1015.0 |
| 20260508132404 | 14 | 0 | 0.0 | 0.0 | 0.03 | 1.75 | 0.38 | 96 | 1015.1 |
| 20260508132105 | 14 | 0 | 0.0 | 0.0 | 0.03 | 1.75 | 0.38 | 96 | 1014.8 |
| 20260508131804 | 14 | 0 | 0.0 | 0.0 | 0.05 | 1.75 | 0.38 | 96 | 1014.7 |
| 20260508131505 | 14 | 0 | 0.0 | 0.0 | 0.05 | 1.75 | 0.38 | 96 | 1014.8 |
| 20260508130904 | 14 | 181 | 0.0 | 1.6 | 0.10 | 1.75 | 0.38 | 96 | 1014.9 |
| 20260508130603 | 14 | 167 | 0.0 | 1.6 | 0.13 | 1.75 | 0.38 | 96 | 1014.9 |
| 20260508130304 | 14 | 135 | 0.0 | 1.6 | 0.23 | 1.75 | 0.38 | 96 | 1014.9 |
| 20260508130005 | 15 | 135 | 0.0 | 1.6 | 0.38 | 1.75 | 0.38 | 96 | 1014.9 |
| 20260508125704 | 15 | 147 | 0.0 | 3.2 | 0.43 | 1.75 | 0.38 | 96 | 1014.9 |
| 20260508125403 | 15 | 146 | 0.0 | 3.2 | 0.46 | 1.75 | 0.38 | 96 | 1014.7 |
| 20260508125104 | 15 | 152 | 0.0 | 3.2 | 0.46 | 1.75 | 0.38 | 96 | 1014.9 |
| 20260508124804 | 15 | 179 | 0.0 | 3.2 | 0.48 | 1.75 | 0.38 | 96 | 1015.0 |
| 20260508124504 | 15 | 224 | 0.0 | 6.4 | 0.48 | 1.75 | 0.38 | 96 | 1014.9 |
| 20260508124204 | 15 | 233 | 0.0 | 8.0 | 0.51 | 1.75 | 0.38 | 96 | 1015.0 |
| 20260508123605 | 15 | 194 | 1.6 | 12.9 | 0.53 | 1.70 | 0.36 | 94 | 1014.9 |
| 20260508123303 | 15 | 182 | 0.0 | 12.9 | 0.56 | 1.70 | 0.36 | 94 | 1015.0 |
| 20260508123004 | 15 | 211 | 3.2 | 12.9 | 0.56 | 1.70 | 0.36 | 94 | 1015.1 |
| 20260508122703 | 15 | 213 | 4.8 | 12.9 | 0.61 | 1.70 | 0.36 | 94 | 1015.0 |
| 20260508122403 | 15 | 228 | 4.8 | 17.7 | 0.64 | 1.70 | 0.36 | 94 | 1014.9 |
| 20260508121504 | 15 | 191 | 12.9 | 17.7 | 0.64 | 1.68 | 0.33 | 94 | 1014.7 |
| 20260508121204 | 16 | 202 | 6.4 | 17.7 | 0.64 | 1.65 | 0.30 | 93 | 1014.9 |
| 20260508120904 | 16 | 218 | 9.7 | 17.7 | 0.66 | 1.65 | 0.30 | 92 | 1014.6 |
| 20260508120603 | 16 | 290 | 6.4 | 17.7 | 0.64 | 1.60 | 0.23 | 92 | 1014.6 |
| 20260508120305 | 16 | 327 | 6.4 | 14.5 | 0.48 | 1.45 | 0.10 | 92 | 1014.6 |
| 20260508120006 | 17 | 326 | 4.8 | 25.7 | 0.43 | 1.35 | 0.00 | 90 | 1014.4 |
| 20260508115703 | 17 | 319 | 6.4 | 25.7 | 0.43 | 1.30 | 1.30 | 90 | 1014.0 |
| 20260508115404 | 17 | 311 | 3.2 | 25.7 | 0.43 | 1.30 | 1.30 | 90 | 1013.8 |
| 20260508115103 | 17 | 313 | 17.7 | 25.7 | 0.43 | 1.27 | 1.27 | 91 | 1013.8 |
| 20260508114803 | 17 | 323 | 3.2 | 24.1 | 0.46 | 1.27 | 1.27 | 91 | 1013.9 |
| 20260508114506 | 16 | 325 | 6.4 | 24.1 | 0.48 | 1.27 | 1.27 | 92 | 1014.1 |
| 20260508114204 | 17 | 337 | 6.4 | 22.5 | 0.48 | 1.22 | 1.22 | 90 | 1014.0 |
| 20260508113904 | 16 | 342 | 9.7 | 22.5 | 0.48 | 1.19 | 1.19 | 91 | 1014.2 |
| 20260508113304 | 16 | 333 | 6.4 | 22.5 | 0.48 | 1.14 | 1.14 | 91 | 1014.2 |
| 20260508113004 | 16 | 310 | 6.4 | 24.1 | 0.48 | 1.14 | 1.14 | 91 | 1014.4 |
| 20260508112706 | 16 | 312 | 3.2 | 24.1 | 0.46 | 1.12 | 1.12 | 91 | 1014.2 |
| 20260508112404 | 17 | 304 | 3.2 | 24.1 | 0.43 | 1.09 | 1.09 | 90 | 1014.4 |
| 20260508112104 | 16 | 315 | 16.1 | 24.1 | 0.46 | 1.09 | 1.09 | 91 | 1014.4 |
| 20260508111804 | 16 | 315 | 6.4 | 20.9 | 0.43 | 1.04 | 1.04 | 91 | 1014.3 |
| 20260508111504 | 16 | 325 | 9.7 | 25.7 | 0.48 | 1.04 | 1.04 | 91 | 1014.3 |
| 20260508110904 | 16 | 325 | 9.7 | 25.7 | 0.51 | 0.99 | 0.99 | 92 | 1014.4 |
| 20260508110604 | 16 | 322 | 8.0 | 25.7 | 0.48 | 0.97 | 0.97 | 92 | 1014.3 |
| 20260508110307 | 16 | 319 | 6.4 | 20.9 | 0.53 | 0.97 | 0.97 | 92 | 1014.5 |
| 20260508110004 | 16 | 318 | 14.5 | 20.9 | 0.61 | 0.94 | 0.94 | 92 | 1014.5 |
| 20260508105405 | 16 | 313 | 6.4 | 12.9 | 0.56 | 0.86 | 0.86 | 91 | 1014.7 |
| 20260508105104 | 16 | 307 | 3.2 | 14.5 | 0.53 | 0.84 | 0.84 | 91 | 1014.9 |
| 20260508104504 | 16 | 293 | 0.0 | 16.1 | 0.48 | 0.79 | 0.79 | 92 | 1014.9 |
| 20260508104203 | 16 | 303 | 6.4 | 16.1 | 0.46 | 0.76 | 0.76 | 92 | 1015.1 |
| 20260508103903 | 16 | 308 | 3.2 | 16.1 | 0.43 | 0.71 | 0.71 | 92 | 1015.0 |
| 20260508103003 | 16 | 318 | 6.4 | 17.7 | 0.36 | 0.66 | 0.66 | 92 | 1014.7 |
| 20260508102704 | 16 | 325 | 3.2 | 17.7 | 0.43 | 0.66 | 0.66 | 92 | 1015.0 |
| 20260508102405 | 16 | 335 | 12.9 | 17.7 | 0.46 | 0.66 | 0.66 | 92 | 1015.0 |
| 20260508101803 | 16 | 354 | 6.4 | 20.9 | 0.43 | 0.64 | 0.64 | 91 | 1015.1 |
| 20260508101507 | 16 | 339 | 11.3 | 20.9 | 0.36 | 0.56 | 0.56 | 91 | 1015.2 |
| 20260508101205 | 16 | 332 | 6.4 | 27.4 | 0.30 | 0.51 | 0.51 | 90 | 1015.3 |
| 20260508100603 | 16 | 326 | 12.9 | 27.4 | 0.23 | 0.46 | 0.46 | 89 | 1015.7 |
| 20260508100305 | 17 | 325 | 12.9 | 22.5 | 0.23 | 0.43 | 0.43 | 88 | 1016.0 |
| 20260508095704 | 17 | 332 | 4.8 | 24.1 | 0.13 | 0.30 | 0.30 | 87 | 1015.8 |
| 20260508095404 | 17 | 332 | 6.4 | 27.4 | 0.13 | 0.30 | 0.30 | 87 | 1015.7 |
| 20260508095106 | 17 | 332 | 4.8 | 27.4 | 0.13 | 0.30 | 0.30 | 88 | 1015.6 |
| 20260508094504 | 17 | 310 | 9.7 | 33.8 | 0.15 | 0.30 | 0.30 | 88 | 1015.5 |
| 20260508094205 | 17 | 300 | 3.2 | 33.8 | 0.18 | 0.30 | 0.30 | 88 | 1015.6 |
| 20260508093603 | 17 | 313 | 17.7 | 38.6 | 0.23 | 0.30 | 0.30 | 88 | 1015.7 |
| 20260508093307 | 17 | 313 | 19.3 | 38.6 | 0.23 | 0.30 | 0.30 | 88 | 1015.6 |
| 20260508093005 | 17 | 333 | 20.9 | 38.6 | 0.23 | 0.30 | 0.30 | 88 | 1015.9 |
| 20260508092704 | 17 | 333 | 12.9 | 29.0 | 0.18 | 0.23 | 0.23 | 88 | 1015.9 |
| 20260508092404 | 17 | 330 | 6.4 | 14.5 | 0.15 | 0.20 | 0.20 | 88 | 1015.9 |
| 20260508092103 | 17 | 317 | 8.0 | 14.5 | 0.15 | 0.20 | 0.20 | 88 | 1015.8 |
| 20260508091804 | 17 | 291 | 6.4 | 12.9 | 0.18 | 0.20 | 0.20 | 88 | 1016.0 |
| 20260508091504 | 17 | 321 | 6.4 | 19.3 | 0.18 | 0.20 | 0.20 | 88 | 1015.6 |
| 20260508091205 | 17 | 315 | 0.0 | 24.1 | 0.18 | 0.20 | 0.20 | 88 | 1015.7 |
| 20260508090906 | 17 | 327 | 8.0 | 24.1 | 0.18 | 0.20 | 0.20 | 88 | 1015.1 |
| 20260508090604 | 17 | 330 | 9.7 | 24.1 | 0.18 | 0.20 | 0.20 | 88 | 1015.2 |
| 20260508090304 | 17 | 349 | 6.4 | 16.1 | 0.15 | 0.18 | 0.18 | 88 | 1016.0 |
| 20260508085706 | 17 | 341 | 3.2 | 19.3 | 0.15 | 0.18 | 0.18 | 89 | 1016.2 |
| 20260508085404 | 17 | 339 | 4.8 | 19.3 | 0.15 | 0.18 | 0.18 | 89 | 1016.3 |
| 20260508085104 | 17 | 327 | 4.8 | 19.3 | 0.15 | 0.18 | 0.18 | 88 | 1016.2 |
| 20260508084804 | 17 | 325 | 9.7 | 19.3 | 0.13 | 0.15 | 0.15 | 88 | 1016.3 |
| 20260508084505 | 17 | 317 | 9.7 | 17.7 | 0.13 | 0.15 | 0.15 | 87 | 1016.4 |
| 20260508084204 | 17 | 332 | 6.4 | 25.7 | 0.10 | 0.13 | 0.13 | 87 | 1016.4 |
| 20260508083904 | 17 | 330 | 9.7 | 25.7 | 0.05 | 0.10 | 0.10 | 86 | 1016.5 |
| 20260508083604 | 17 | 338 | 12.9 | 25.7 | 0.03 | 0.05 | 0.05 | 86 | 1016.6 |
| 20260508083004 | 17 | 316 | 4.8 | 24.1 | 0.03 | 0.05 | 0.05 | 85 | 1016.6 |
| 20260508082704 | 17 | 314 | 6.4 | 24.1 | 0.03 | 0.05 | 0.05 | 84 | 1016.5 |
| 20260508082404 | 17 | 322 | 6.4 | 24.1 | 0.03 | 0.05 | 0.05 | 83 | 1016.7 |
| 20260508082104 | 17 | 314 | 12.9 | 24.1 | 0.03 | 0.05 | 0.05 | 83 | 1016.6 |
| 20260508081804 | 17 | 321 | 12.9 | 24.1 | 0.00 | 0.03 | 0.03 | 82 | 1016.8 |
| 20260508081505 | 17 | 302 | 12.9 | 25.7 | 0.00 | 0.03 | 0.03 | 81 | 1016.8 |
| 20260508081204 | 17 | 315 | 8.0 | 25.7 | 0.00 | 0.03 | 0.03 | 81 | 1016.9 |
| 20260508080904 | 17 | 311 | 6.4 | 32.2 | 0.00 | 0.03 | 0.03 | 80 | 1016.8 |
| 20260508080604 | 17 | 318 | 6.4 | 32.2 | 0.00 | 0.03 | 0.03 | 81 | 1016.7 |
| 20260508080305 | 18 | 317 | 3.2 | 32.2 | 0.03 | 0.03 | 0.03 | 80 | 1016.8 |
| 20260508080005 | 18 | 319 | 12.9 | 32.2 | 0.03 | 0.03 | 0.03 | 80 | 1016.7 |
| 20260508075703 | 18 | 333 | 9.7 | 24.1 | 0.03 | 0.03 | 0.03 | 81 | 1016.7 |
| 20260508075103 | 17 | 327 | 9.7 | 24.1 | 0.03 | 0.03 | 0.03 | 81 | 1016.6 |
| 20260508074803 | 17 | 318 | 14.5 | 24.1 | 0.03 | 0.03 | 0.03 | 83 | 1016.4 |
| 20260508074504 | 17 | 305 | 3.2 | 11.3 | 0.03 | 0.03 | 0.03 | 84 | 1016.5 |
| 20260508074206 | 17 | 301 | 6.4 | 11.3 | 0.03 | 0.03 | 0.03 | 84 | 1016.4 |
| 20260508073603 | 17 | 7 | 1.6 | 6.4 | 0.03 | 0.03 | 0.03 | 84 | 1016.5 |
| 20260508073004 | 17 | 336 | 3.2 | 12.9 | 0.03 | 0.03 | 0.03 | 83 | 1016.3 |
| 20260508072706 | 17 | 327 | 3.2 | 12.9 | 0.03 | 0.03 | 0.03 | 83 | 1016.4 |
| 20260508072404 | 17 | 331 | 3.2 | 12.9 | 0.03 | 0.03 | 0.03 | 83 | 1016.4 |
| 20260508072104 | 17 | 344 | 3.2 | 12.9 | 0.03 | 0.03 | 0.03 | 84 | 1016.4 |
| 20260508071504 | 17 | 320 | 3.2 | 12.9 | 0.03 | 0.03 | 0.03 | 85 | 1016.6 |
| 20260508071203 | 17 | 314 | 9.7 | 17.7 | 0.03 | 0.03 | 0.03 | 85 | 1016.7 |
| 20260508070903 | 17 | 315 | 4.8 | 17.7 | 0.03 | 0.03 | 0.03 | 85 | 1016.8 |
| 20260508070306 | 17 | 323 | 4.8 | 16.1 | 0.00 | 0.00 | 0.00 | 84 | 1016.8 |
| 20260508070004 | 17 | 314 | 4.8 | 17.7 | 0.00 | 0.00 | 0.00 | 84 | 1016.8 |
| 20260508065704 | 17 | 321 | 6.4 | 17.7 | 0.00 | 0.00 | 0.00 | 84 | 1017.0 |
| 20260508065404 | 17 | 326 | 12.9 | 17.7 | 0.00 | 0.00 | 0.00 | 83 | 1017.0 |
| 20260508065104 | 17 | 344 | 8.0 | 17.7 | 0.00 | 0.00 | 0.00 | 83 | 1016.9 |
| 20260508064804 | 17 | 343 | 6.4 | 17.7 | 0.00 | 0.00 | 0.00 | 83 | 1016.9 |
| 20260508064504 | 17 | 351 | 4.8 | 27.4 | 0.00 | 0.00 | 0.00 | 82 | 1017.1 |
| 20260508064204 | 17 | 347 | 11.3 | 27.4 | 0.00 | 0.00 | 0.00 | 82 | 1017.0 |
| 20260508063904 | 17 | 345 | 6.4 | 27.4 | 0.00 | 0.00 | 0.00 | 81 | 1017.1 |
| 20260508063303 | 17 | 338 | 6.4 | 24.1 | 0.00 | 0.00 | 0.00 | 82 | 1017.6 |
| 20260508063006 | 17 | 347 | 6.4 | 24.1 | 0.00 | 0.00 | 0.00 | 82 | 1017.5 |
| 20260508062704 | 17 | 353 | 17.7 | 24.1 | 0.00 | 0.00 | 0.00 | 81 | 1017.7 |
| 20260508062104 | 17 | 348 | 8.0 | 24.1 | 0.00 | 0.00 | 0.00 | 83 | 1017.5 |
| 20260508061804 | 17 | 339 | 6.4 | 24.1 | 0.00 | 0.00 | 0.00 | 83 | 1017.6 |
| 20260508061504 | 17 | 334 | 12.9 | 17.7 | 0.00 | 0.00 | 0.00 | 84 | 1017.8 |
| 20260508061206 | 17 | 333 | 12.9 | 17.7 | 0.00 | 0.00 | 0.00 | 85 | 1018.0 |
| 20260508060904 | 17 | 353 | 4.8 | 12.9 | 0.00 | 0.00 | 0.00 | 85 | 1017.9 |
| 20260508060605 | 17 | 354 | 4.8 | 12.9 | 0.00 | 0.00 | 0.00 | 85 | 1018.2 |
| 20260508060303 | 17 | 357 | 3.2 | 11.3 | 0.00 | 0.00 | 0.00 | 85 | 1018.1 |
| 20260508060005 | 17 | 357 | 3.2 | 11.3 | 0.00 | 0.00 | 0.00 | 84 | 1018.3 |
| 20260508055704 | 17 | 344 | 1.6 | 16.1 | 0.00 | 0.00 | 0.00 | 84 | 1018.2 |
| 20260508055404 | 17 | 354 | 3.2 | 22.5 | 0.00 | 0.00 | 0.00 | 84 | 1018.4 |
| 20260508055105 | 17 | 353 | 6.4 | 22.5 | 0.00 | 0.00 | 0.00 | 84 | 1018.4 |
| 20260508054505 | 17 | 317 | 6.4 | 16.1 | 0.00 | 0.00 | 0.00 | 83 | 1018.4 |
| 20260508054204 | 17 | 315 | 4.8 | 16.1 | 0.00 | 0.00 | 0.00 | 83 | 1018.4 |
| 20260508053904 | 17 | 322 | 4.8 | 16.1 | 0.00 | 0.00 | 0.00 | 83 | 1018.5 |
| 20260508053604 | 17 | 339 | 3.2 | 17.7 | 0.00 | 0.00 | 0.00 | 83 | 1018.4 |
| 20260508053304 | 17 | 342 | 3.2 | 20.9 | 0.00 | 0.00 | 0.00 | 83 | 1018.5 |
| 20260508053005 | 17 | 348 | 8.0 | 20.9 | 0.00 | 0.00 | 0.00 | 83 | 1018.3 |
| 20260508052704 | 17 | 339 | 9.7 | 20.9 | 0.00 | 0.00 | 0.00 | 83 | 1018.5 |
| 20260508052106 | 17 | 340 | 8.0 | 17.7 | 0.00 | 0.00 | 0.00 | 82 | 1018.5 |
| 20260508051804 | 17 | 336 | 11.3 | 24.1 | 0.00 | 0.00 | 0.00 | 81 | 1018.7 |
| 20260508051504 | 17 | 342 | 6.4 | 24.1 | 0.00 | 0.00 | 0.00 | 81 | 1019.3 |
| 20260508051204 | 17 | 340 | 6.4 | 24.1 | 0.00 | 0.00 | 0.00 | 80 | 1019.1 |
| 20260508050904 | 17 | 346 | 12.9 | 24.1 | 0.00 | 0.00 | 0.00 | 80 | 1019.1 |
| 20260508050604 | 17 | 333 | 6.4 | 19.3 | 0.00 | 0.00 | 0.00 | 79 | 1019.1 |
| 20260508050004 | 17 | 325 | 6.4 | 22.5 | 0.00 | 0.00 | 0.00 | 78 | 1019.3 |
| 20260508045704 | 17 | 336 | 14.5 | 22.5 | 0.00 | 0.00 | 0.00 | 78 | 1019.5 |
| 20260508045404 | 17 | 342 | 12.9 | 22.5 | 0.00 | 0.00 | 0.00 | 78 | 1019.5 |
| 20260508045103 | 17 | 341 | 6.4 | 14.5 | 0.00 | 0.00 | 0.00 | 77 | 1019.4 |